createdAt,value
2023-03-28T00:01:14.300Z,99326.16
2023-03-28T00:03:43.377Z,99330.72
2023-03-28T00:06:19.457Z,99332.72
2023-03-28T00:08:48.862Z,99337.28
2023-03-28T00:11:22.607Z,99350.28
2023-03-28T00:13:58.891Z,99355.09
2023-03-28T00:16:33.155Z,99359.16
2023-03-28T00:19:08.282Z,99358.88
2023-03-28T00:21:39.746Z,99372.13
2023-03-28T00:24:11.859Z,99373.91
2023-03-28T00:26:40.510Z,99385.09
2023-03-28T00:29:11.229Z,99389.13
2023-03-28T00:31:40.718Z,99383.78
2023-03-28T00:34:09.622Z,99388.56
2023-03-28T00:36:40.640Z,99395.19
2023-03-28T00:39:11.271Z,99406.91
2023-03-28T00:41:43.630Z,99408.13
2023-03-28T00:44:42.469Z,99404.28
2023-03-28T00:47:29.414Z,99411.13
2023-03-28T00:50:24.993Z,99414.94
2023-03-28T00:53:09.985Z,99423.88
2023-03-28T00:55:49.590Z,99418.69
2023-03-28T00:58:25.688Z,99425.31
2023-03-28T01:00:57.722Z,99431.66
2023-03-28T01:03:31.351Z,99420.09
2023-03-28T01:06:02.593Z,99426.97
2023-03-28T01:08:35.129Z,99425.41
2023-03-28T01:11:04.329Z,99430.97
2023-03-28T01:13:40.505Z,99437.81
2023-03-28T01:16:10.223Z,99437.75
2023-03-28T01:18:42.477Z,99438.44
2023-03-28T01:21:10.966Z,99441.22
2023-03-28T01:23:45.484Z,99438.53
2023-03-28T01:26:44.228Z,99447.69
2023-03-28T01:29:27.455Z,99446.31
2023-03-28T01:32:17.602Z,99455.47
2023-03-28T01:34:57.753Z,99451.84
2023-03-28T01:37:37.793Z,99461.72
2023-03-28T01:40:14.530Z,99468.03
2023-03-28T01:42:55.240Z,99472.31
2023-03-28T01:46:02.305Z,99468.91
2023-03-28T01:48:48.936Z,99471.84
2023-03-28T01:51:32.015Z,99471.22
2023-03-28T01:54:15.761Z,99465.75
2023-03-28T01:56:48.422Z,99467.72
2023-03-28T01:59:27.402Z,99474.06
2023-03-28T02:02:30.973Z,99473.19
2023-03-28T02:05:02.099Z,99476.47
2023-03-28T02:07:34.270Z,99480.72
2023-03-28T02:10:18.868Z,99486.28
2023-03-28T02:12:53.115Z,99483.38
2023-03-28T02:15:24.891Z,99493.47
2023-03-28T02:17:59.087Z,99495.66
2023-03-28T02:20:37.292Z,99498.06
2023-03-28T02:23:10.867Z,99503.31
2023-03-28T02:25:40.092Z,99497.50
2023-03-28T02:28:12.813Z,99505.97
2023-03-28T02:30:41.345Z,99510.84
2023-03-28T02:33:32.633Z,99508.56
2023-03-28T02:36:21.640Z,99517.94
2023-03-28T02:39:01.936Z,99517.28
2023-03-28T02:41:49.797Z,99518.72
2023-03-28T02:44:55.257Z,99510.44
2023-03-28T02:47:35.654Z,99520.88
2023-03-28T02:50:28.456Z,99517.69
2023-03-28T02:53:13.564Z,99515.19
2023-03-28T02:56:09.752Z,99509.09
2023-03-28T02:58:53.343Z,99507.84
2023-03-28T03:01:26.274Z,99501.88
2023-03-28T03:03:56.764Z,99501.88
2023-03-28T03:06:26.810Z,99500.56
2023-03-28T03:08:55.743Z,99500.34
2023-03-28T03:11:26.354Z,99503.50
2023-03-28T03:13:55.371Z,99513.19
2023-03-28T03:16:24.744Z,99504.38
2023-03-28T03:18:56.591Z,99508.28
2023-03-28T03:21:26.676Z,99506.84
2023-03-28T03:23:55.376Z,99502.00
2023-03-28T03:26:24.288Z,99496.97
2023-03-28T03:28:53.297Z,99494.56
2023-03-28T03:31:23.140Z,99490.09
2023-03-28T03:33:51.544Z,99481.66
2023-03-28T03:36:21.280Z,99477.81
2023-03-28T03:38:50.929Z,99475.41
2023-03-28T03:41:19.343Z,99473.19
2023-03-28T03:43:48.380Z,99468.88
2023-03-28T03:46:17.009Z,99466.53
2023-03-28T03:48:49.220Z,99468.28
2023-03-28T03:51:19.085Z,99462.53
2023-03-28T03:53:48.008Z,99452.78
2023-03-28T03:56:16.591Z,99451.09
2023-03-28T03:58:45.862Z,99449.97
2023-03-28T04:01:17.248Z,99445.28
2023-03-28T04:03:45.829Z,99439.22
2023-03-28T04:06:14.220Z,99439.44
2023-03-28T04:08:42.576Z,99426.22
2023-03-28T04:11:11.993Z,99433.59
2023-03-28T04:13:40.462Z,99428.91
2023-03-28T04:16:09.814Z,99426.81
2023-03-28T04:18:38.585Z,99420.41
2023-03-28T04:21:12.780Z,99417.94
2023-03-28T04:23:44.689Z,99415.69
2023-03-28T04:26:27.197Z,99406.06
2023-03-28T04:28:56.911Z,99397.56
2023-03-28T04:31:30.413Z,99403.44
2023-03-28T04:34:01.278Z,99399.50
2023-03-28T04:36:30.588Z,99389.66
2023-03-28T04:39:07.922Z,99391.00
2023-03-28T04:41:36.844Z,99388.16
2023-03-28T04:44:06.996Z,99385.50
2023-03-28T04:46:38.497Z,99371.94
2023-03-28T04:49:07.331Z,99370.63
2023-03-28T04:51:36.096Z,99366.28
2023-03-28T04:54:04.507Z,99359.47
2023-03-28T04:56:32.981Z,99353.59
2023-03-28T04:59:01.469Z,99340.59
2023-03-28T05:01:29.985Z,99333.19
2023-03-28T05:03:58.575Z,99334.91
2023-03-28T05:06:29.840Z,99320.34
2023-03-28T05:08:58.939Z,99313.69
2023-03-28T05:11:27.351Z,99315.44
2023-03-28T05:13:55.754Z,99304.44
2023-03-28T05:16:24.191Z,99305.03
2023-03-28T05:18:54.420Z,99298.38
2023-03-28T05:21:23.500Z,99290.03
2023-03-28T05:23:52.557Z,99278.88
2023-03-28T05:26:21.515Z,99282.44
2023-03-28T05:28:50.194Z,99283.72
2023-03-28T05:31:18.828Z,99273.88
2023-03-28T05:33:47.523Z,99267.59
2023-03-28T05:36:17.154Z,99264.13
2023-03-28T05:38:48.100Z,99256.31
2023-03-28T05:41:16.962Z,99247.41
2023-03-28T05:43:45.896Z,99235.47
2023-03-28T05:46:14.344Z,99228.81
2023-03-28T05:48:49.556Z,99225.56
2023-03-28T05:51:18.431Z,99216.84
2023-03-28T05:53:47.246Z,99212.25
2023-03-28T05:56:15.690Z,99205.59
2023-03-28T05:58:44.440Z,99201.78
2023-03-28T06:01:14.073Z,99202.13
2023-03-28T06:03:43.557Z,99201.13
2023-03-28T06:06:12.231Z,99197.88
2023-03-28T06:08:40.929Z,99186.09
2023-03-28T06:11:09.821Z,99179.22
2023-03-28T06:13:38.485Z,99188.84
2023-03-28T06:16:07.566Z,99172.75
2023-03-28T06:18:36.109Z,99166.63
2023-03-28T06:21:04.766Z,99158.09
2023-03-28T06:23:33.653Z,99162.47
2023-03-28T06:26:03.578Z,99158.28
2023-03-28T06:28:34.509Z,99146.50
2023-03-28T06:31:03.898Z,99153.53
2023-03-28T06:33:32.977Z,99142.50
2023-03-28T06:36:01.621Z,99135.81
2023-03-28T06:38:30.234Z,99127.00
2023-03-28T06:40:58.817Z,99127.97
2023-03-28T06:43:27.579Z,99120.34
2023-03-28T06:45:56.171Z,99111.97
2023-03-28T06:48:30.233Z,99111.97
2023-03-28T06:50:59.851Z,99104.59
2023-03-28T06:53:29.182Z,99103.44
2023-03-28T06:55:58.006Z,99104.50
2023-03-28T06:58:26.803Z,99089.69
2023-03-28T07:00:57.076Z,99083.00
2023-03-28T07:03:25.800Z,99078.22
2023-03-28T07:05:54.746Z,99071.34
2023-03-28T07:08:23.563Z,99065.81
2023-03-28T07:10:55.566Z,99051.75
2023-03-28T07:13:24.723Z,99046.25
2023-03-28T07:16:08.673Z,99041.47
2023-03-28T07:18:37.163Z,99029.31
2023-03-28T07:21:11.009Z,99026.63
2023-03-28T07:23:43.737Z,99023.22
2023-03-28T07:26:14.613Z,99021.88
2023-03-28T07:28:57.529Z,99030.06
2023-03-28T08:45:24.506Z,98946.38
2023-03-28T08:48:25.898Z,98935.03
2023-03-28T08:51:12.365Z,98959.88
2023-03-28T08:53:44.981Z,98956.41
2023-03-28T08:56:17.167Z,98957.31
2023-03-28T08:58:56.233Z,98949.13
2023-03-28T09:01:26.206Z,98954.50
2023-03-28T09:03:54.714Z,98957.03
2023-03-28T09:06:41.877Z,98946.88
2023-03-28T09:09:24.326Z,98914.63
2023-03-28T09:12:12.408Z,98920.56
2023-03-28T09:15:02.215Z,98931.19
2023-03-28T09:18:00.874Z,98928.97
2023-03-28T09:21:00.689Z,98937.69
2023-03-28T09:23:43.967Z,98942.84
2023-03-28T09:26:21.201Z,98940.78
2023-03-28T09:29:01.273Z,98915.50
2023-03-28T09:31:39.778Z,98913.06
2023-03-28T09:34:08.561Z,98927.81
2023-03-28T09:36:49.115Z,98944.66
2023-03-28T09:39:43.572Z,98942.38
2023-03-28T09:42:30.199Z,98952.22
2023-03-28T09:45:42.361Z,98950.31
2023-03-28T09:48:22.552Z,98951.81
2023-03-28T09:50:51.700Z,98949.16
2023-03-28T09:53:32.908Z,98950.69
2023-03-28T09:56:14.100Z,98952.94
2023-03-28T09:58:56.362Z,98953.69
2023-03-28T10:01:45.853Z,98948.78
2023-03-28T10:04:32.277Z,98939.69
2023-03-28T10:07:13.011Z,98931.94
2023-03-28T10:10:02.017Z,98926.25
2023-03-28T10:12:37.335Z,98935.69
2023-03-28T10:15:09.737Z,98923.00
2023-03-28T10:17:41.688Z,98922.25
2023-03-28T10:20:19.922Z,98921.69
2023-03-28T10:22:52.259Z,98920.34
2023-03-28T10:25:24.620Z,98916.19
2023-03-28T10:27:54.390Z,98913.34
2023-03-28T10:30:32.587Z,98921.31
2023-03-28T10:33:18.832Z,98919.03
2023-03-28T10:35:58.714Z,98915.25
2023-03-28T10:38:37.487Z,98934.19
2023-03-28T10:41:11.038Z,98933.84
2023-03-28T10:43:43.270Z,98938.41
2023-03-28T10:46:22.913Z,98930.13
2023-03-28T10:48:57.749Z,98943.75
2023-03-28T10:51:27.783Z,98942.06
2023-03-28T10:54:32.755Z,98935.28
2023-03-28T10:57:27.315Z,98929.41
2023-03-28T11:00:11.244Z,98938.28
2023-03-28T11:03:14.854Z,98939.25
2023-03-28T11:06:15.399Z,98941.56
2023-03-28T11:08:49.706Z,98949.72
2023-03-28T11:11:33.166Z,98957.06
2023-03-28T11:15:02.714Z,98965.78
2023-03-28T11:17:42.140Z,98969.22
2023-03-28T11:20:29.296Z,98961.66
2023-03-28T11:23:38.328Z,98964.88
2023-03-28T11:26:10.525Z,98969.19
2023-03-28T11:29:10.460Z,98979.41
2023-03-28T11:31:44.677Z,98993.94
2023-03-28T11:34:41.482Z,98994.16
2023-03-28T11:37:28.051Z,98992.63
2023-03-28T11:40:10.216Z,99000.75
2023-03-28T11:42:48.183Z,99003.97
2023-03-28T11:45:50.169Z,99009.81
2023-03-28T11:48:40.749Z,99014.34
2023-03-28T11:51:24.190Z,99013.97
2023-03-28T11:54:04.145Z,99014.34
2023-03-28T11:56:38.183Z,99024.50
2023-03-28T11:59:40.182Z,99033.91
2023-03-28T12:02:28.739Z,99048.25
2023-03-28T12:05:23.718Z,99043.34
2023-03-28T12:08:09.279Z,99056.34
2023-03-28T12:10:39.167Z,99055.94
2023-03-28T12:13:32.682Z,99060.44
2023-03-28T12:16:06.921Z,99050.25
2023-03-28T12:18:52.432Z,99051.38
2023-03-28T12:21:27.155Z,99051.19
2023-03-28T12:24:19.936Z,99055.13
2023-03-28T12:27:10.481Z,99059.09
2023-03-28T12:29:48.270Z,99066.06
2023-03-28T12:32:55.197Z,99056.06
2023-03-28T12:35:23.714Z,99066.63
2023-03-28T12:37:57.832Z,99059.44
2023-03-28T12:40:44.489Z,99060.00
2023-03-28T12:43:18.228Z,99050.00
2023-03-28T12:45:57.433Z,99063.94
2023-03-28T12:48:42.949Z,99077.13
2023-03-28T12:51:31.131Z,99086.69
2023-03-28T12:54:16.712Z,99082.91
2023-03-28T12:57:11.161Z,99084.78
2023-03-28T12:59:45.479Z,99093.84
2023-03-28T13:02:27.469Z,99095.16
2023-03-28T13:05:01.062Z,99102.69
2023-03-28T13:07:38.852Z,99105.50
2023-03-28T13:10:30.833Z,99111.72
2023-03-28T13:13:18.683Z,99107.94
2023-03-28T13:16:07.727Z,99109.81
2023-03-28T13:18:36.732Z,99120.13
2023-03-28T13:21:08.120Z,99125.59
2023-03-28T13:23:47.039Z,99128.41
2023-03-28T13:26:15.914Z,99123.88
2023-03-28T13:28:46.167Z,99123.88
2023-03-28T13:31:35.185Z,99128.78
2023-03-28T13:34:04.944Z,99130.66
2023-03-28T13:36:35.359Z,99128.38
2023-03-28T13:39:08.389Z,99121.22
2023-03-28T13:41:43.116Z,99119.69
2023-03-28T13:44:15.542Z,99111.03
2023-03-28T13:46:51.794Z,99123.63
2023-03-28T13:49:45.145Z,99127.03
2023-03-28T13:52:25.836Z,99132.69
2023-03-28T13:55:02.625Z,99139.63
2023-03-28T13:57:31.303Z,99136.06
2023-03-28T14:00:07.694Z,99137.72
2023-03-28T14:02:44.252Z,99144.59
2023-03-28T14:05:17.382Z,99152.59
2023-03-28T14:07:45.847Z,99158.09
2023-03-28T14:10:42.128Z,99161.16
2023-03-28T14:13:22.122Z,99163.59
2023-03-28T14:15:56.841Z,99155.69
2023-03-28T14:18:32.878Z,99168.53
2023-03-28T14:21:02.597Z,99169.53
2023-03-28T14:23:41.951Z,99175.81
2023-03-28T14:26:19.609Z,99173.13
2023-03-28T14:28:48.197Z,99174.53
2023-03-28T14:31:34.123Z,99172.34
2023-03-28T14:34:17.518Z,99185.78
2023-03-28T14:37:19.358Z,99214.09
2023-03-28T14:39:48.278Z,99213.13
2023-03-28T14:42:19.243Z,99202.19
2023-03-28T14:44:54.162Z,99197.09
2023-03-28T14:47:34.216Z,99197.63
2023-03-28T14:50:04.212Z,99210.19
2023-03-28T14:52:41.723Z,99213.56
2023-03-28T14:55:18.272Z,99231.03
2023-03-28T14:57:49.057Z,99255.41
2023-03-28T15:00:23.306Z,99263.66
2023-03-28T15:02:53.823Z,99270.28
2023-03-28T15:05:24.557Z,99273.09
2023-03-28T15:08:03.106Z,99283.81
2023-03-28T15:10:32.874Z,99277.19
2023-03-28T15:13:04.527Z,99272.09
2023-03-28T15:15:39.162Z,99292.91
2023-03-28T15:18:13.042Z,99332.66
2023-03-28T15:20:48.698Z,99385.47
2023-03-28T15:23:25.235Z,99452.44
2023-03-28T15:25:54.489Z,99408.34
2023-03-28T15:28:23.523Z,99396.72
2023-03-28T15:30:52.042Z,99415.94
2023-03-28T15:33:23.761Z,99429.59
2023-03-28T15:36:05.118Z,99415.03
2023-03-28T15:38:38.071Z,99412.88
2023-03-28T15:41:19.562Z,99460.59
2023-03-28T15:43:57.657Z,99493.34
2023-03-28T15:46:34.308Z,99497.25
2023-03-28T15:49:05.949Z,99474.91
2023-03-28T15:51:59.785Z,99509.72
2023-03-28T15:54:31.845Z,99564.84
2023-03-28T15:57:03.364Z,99529.34
2023-03-28T15:59:37.325Z,99519.94
2023-03-28T16:02:25.882Z,99499.63
2023-03-28T16:05:37.681Z,99481.44
2023-03-28T16:08:43.657Z,99458.28
2023-03-28T16:11:21.397Z,99445.03
2023-03-28T16:13:50.354Z,99462.03
2023-03-28T16:16:40.333Z,99480.03
2023-03-28T16:19:22.324Z,99463.28
2023-03-28T16:21:50.789Z,99455.44
2023-03-28T16:24:20.943Z,99447.59
2023-03-28T16:26:49.713Z,99449.94
2023-03-28T16:29:18.123Z,99442.66
2023-03-28T16:31:46.849Z,99460.72
2023-03-28T16:34:15.361Z,99465.59
2023-03-28T16:36:43.779Z,99471.22
2023-03-28T16:39:12.990Z,99473.50
2023-03-28T16:41:41.673Z,99475.31
2023-03-28T16:44:10.413Z,99461.63
2023-03-28T16:46:38.963Z,99459.84
2023-03-28T16:49:07.407Z,99439.78
2023-03-28T16:51:35.822Z,99441.59
2023-03-28T16:54:04.474Z,99443.13
2023-03-28T16:56:33.436Z,99428.13
2023-03-28T16:59:01.978Z,99399.16
2023-03-28T17:01:30.656Z,99385.94
2023-03-28T17:04:00.009Z,99387.47
2023-03-28T17:06:28.595Z,99378.31
2023-03-28T17:08:57.327Z,99377.06
2023-03-28T17:11:27.193Z,99363.34
2023-03-28T17:13:56.298Z,99353.41
2023-03-28T17:16:25.016Z,99348.09
2023-03-28T17:18:54.683Z,99348.09
2023-03-28T17:21:23.146Z,99349.63
2023-03-28T17:23:52.127Z,99349.09
2023-03-28T17:26:20.639Z,99352.94
2023-03-28T17:28:49.585Z,99358.09
2023-03-28T17:31:20.812Z,99360.88
2023-03-28T17:33:50.387Z,99368.75
2023-03-28T17:36:24.497Z,99371.31
2023-03-28T17:38:56.096Z,99377.19
2023-03-28T17:41:25.944Z,99383.28
2023-03-28T17:43:55.920Z,99402.91
2023-03-28T17:46:25.347Z,99405.94
2023-03-28T17:48:54.753Z,99400.13
2023-03-28T17:51:23.626Z,99389.44
2023-03-28T17:53:52.375Z,99375.22
2023-03-28T17:56:21.020Z,99366.59
2023-03-28T17:58:49.392Z,99362.78
2023-03-28T18:01:23.250Z,99358.22
2023-03-28T18:03:52.718Z,99363.56
2023-03-28T18:06:21.220Z,99349.81
2023-03-28T18:08:49.751Z,99350.06
2023-03-28T18:11:19.723Z,99333.53
2023-03-28T18:13:48.089Z,99307.06
2023-03-28T18:16:19.263Z,99286.22
2023-03-28T18:18:48.982Z,99271.72
2023-03-28T18:21:17.461Z,99263.56
2023-03-28T18:23:45.804Z,99249.09
2023-03-28T18:26:14.188Z,99240.19
2023-03-28T18:28:42.725Z,99241.19
2023-03-28T18:31:16.536Z,99246.03
2023-03-28T18:33:46.043Z,99245.53
2023-03-28T18:36:15.477Z,99230.25
2023-03-28T18:38:45.371Z,99229.47
2023-03-28T18:41:14.421Z,99220.31
2023-03-28T18:43:44.493Z,99214.72
2023-03-28T18:46:16.161Z,99217.53
2023-03-28T18:48:45.702Z,99223.13
2023-03-28T18:51:14.576Z,99233.03
2023-03-28T18:53:44.082Z,99245.00
2023-03-28T18:56:14.293Z,99241.69
2023-03-28T18:58:42.697Z,99248.81
2023-03-28T19:01:12.325Z,99262.31
2023-03-28T19:03:44.003Z,99261.81
2023-03-28T19:06:14.068Z,99266.13
2023-03-28T19:08:43.367Z,99283.69
2023-03-28T19:11:14.329Z,99282.94
2023-03-28T19:16:29.903Z,99254.41
2023-03-28T19:18:58.267Z,99248.81
2023-03-28T19:21:26.641Z,99288.78
2023-03-28T19:23:55.725Z,99282.41
2023-03-28T19:26:24.405Z,99271.97
2023-03-28T19:28:52.818Z,99280.38
2023-03-28T19:31:24.934Z,99268.41
2023-03-28T19:36:22.368Z,99275.53
2023-03-28T19:38:50.795Z,99272.75
2023-03-28T19:41:23.081Z,99271.97
2023-03-28T19:43:56.301Z,99267.41
2023-03-28T19:46:36.369Z,99277.84
2023-03-28T19:49:07.635Z,99276.31
2023-03-28T19:51:36.588Z,99264.09
2023-03-28T19:54:05.660Z,99260.53
2023-03-28T19:56:34.418Z,99244.25
2023-03-28T19:59:02.824Z,99237.13
2023-03-28T20:01:31.307Z,99222.09
2023-03-28T20:03:59.698Z,99226.69
2023-03-28T20:06:28.106Z,99218.78
2023-03-28T20:08:56.548Z,99216.47
2023-03-28T20:11:24.929Z,99207.56
2023-03-28T20:13:53.553Z,99209.13
2023-03-28T20:16:22.122Z,99207.56
2023-03-28T20:18:50.488Z,99203.53
2023-03-28T20:21:18.949Z,99208.38
2023-03-28T20:23:47.410Z,99212.41
2023-03-28T20:26:21.445Z,99192.81
2023-03-28T20:28:52.545Z,99184.41
2023-03-28T20:31:21.260Z,99187.97
2023-03-28T20:33:50.143Z,99187.22
2023-03-28T20:36:18.466Z,99181.63
2023-03-28T20:38:46.876Z,99180.38
2023-03-28T20:41:18.471Z,99183.19
2023-03-28T20:43:51.005Z,99187.50
2023-03-28T20:46:20.679Z,99190.31
2023-03-28T20:48:53.358Z,99191.06
2023-03-28T20:51:25.192Z,99193.88
2023-03-28T20:54:02.871Z,99194.63
2023-03-28T20:56:32.748Z,99191.81
2023-03-28T20:59:01.210Z,99194.13
2023-03-28T21:01:31.605Z,99189.78
2023-03-28T21:04:05.457Z,99194.13
2023-03-28T21:06:38.945Z,99201.00
2023-03-28T21:09:10.948Z,99203.78
2023-03-28T21:11:41.164Z,99219.81
2023-03-28T21:14:12.563Z,99229.50
2023-03-28T21:16:41.778Z,99235.09
2023-03-28T21:19:10.631Z,99232.00
2023-03-28T21:21:39.141Z,99244.75
2023-03-28T21:24:08.362Z,99261.28
2023-03-28T21:26:37.038Z,99281.63
2023-03-28T21:29:05.750Z,99282.41
2023-03-28T21:31:38.356Z,99277.56
2023-03-28T21:34:07.231Z,99284.72
2023-03-28T21:36:35.803Z,99283.16
2023-03-28T21:39:04.815Z,99284.19
2023-03-28T21:41:33.461Z,99292.59
2023-03-28T21:44:02.050Z,99283.44
2023-03-28T21:46:30.544Z,99296.41
2023-03-28T21:48:58.982Z,99298.19
2023-03-28T21:51:27.421Z,99308.88
2023-03-28T21:53:55.881Z,99314.75
2023-03-28T21:56:24.248Z,99303.81
2023-03-28T21:58:52.792Z,99304.06
2023-03-28T22:03:50.111Z,99308.91
2023-03-28T22:06:19.626Z,99318.34
2023-03-28T22:08:52.926Z,99324.94
2023-03-28T22:11:28.560Z,99332.84
2023-03-28T22:14:05.834Z,99335.94
2023-03-28T22:16:38.338Z,99338.97
2023-03-28T22:19:09.547Z,99337.19
2023-03-28T22:21:38.292Z,99322.69
2023-03-28T22:24:11.687Z,99325.47
2023-03-28T22:26:41.563Z,99344.31
2023-03-28T22:29:10.007Z,99344.31
2023-03-28T22:31:38.840Z,99344.31
2023-03-28T22:34:08.536Z,99347.13
2023-03-28T22:36:37.005Z,99359.59
2023-03-28T22:39:05.758Z,99365.97
2023-03-28T22:41:34.182Z,99370.03
2023-03-28T22:44:03.194Z,99361.63
2023-03-28T22:46:31.899Z,99369.28
2023-03-28T22:49:00.362Z,99370.03
2023-03-28T22:51:28.865Z,99352.47
2023-03-28T22:54:01.285Z,99360.13
2023-03-28T22:56:29.710Z,99364.69
2023-03-28T22:59:01.904Z,99366.72
2023-03-28T23:01:30.512Z,99373.09
2023-03-28T23:03:59.011Z,99380.75
2023-03-28T23:06:30.041Z,99374.84
2023-03-28T23:08:59.659Z,99387.31
2023-03-28T23:11:28.470Z,99389.38
2023-03-28T23:13:56.897Z,99383.00
2023-03-28T23:16:25.399Z,99377.41
2023-03-28T23:18:54.299Z,99372.31
2023-03-28T23:21:22.815Z,99377.91
2023-03-28T23:23:51.326Z,99384.00
2023-03-28T23:26:19.858Z,99395.97
2023-03-28T23:28:48.250Z,99395.97
2023-03-28T23:31:16.740Z,99401.59
2023-03-28T23:33:47.942Z,99398.28
2023-03-28T23:36:21.268Z,99401.06
2023-03-28T23:38:50.978Z,99416.59
2023-03-28T23:41:19.360Z,99416.59
2023-03-28T23:43:47.823Z,99428.06
2023-03-28T23:46:16.665Z,99425.25
2023-03-28T23:48:45.057Z,99431.91
2023-03-28T23:51:13.721Z,99440.56
2023-03-28T23:53:42.381Z,99447.69
2023-03-28T23:56:10.886Z,99451.28
2023-03-28T23:58:39.237Z,99455.84
